Time;durP1;ratioP1;P1;durP2;ratioP2;P2;SDS_P1;SDS_P2;PMS_P1;PMS_P2;Temp;Humidity;BMP_temperature;BMP_pressure;BME280_temperature;BME280_humidity;BME280_pressure;Samples;Min_cycle;Max_cycle;Signal;HPM_P1;HPM_P2
2022/10/26 00:02:16;;;;;;;6.18;1.98;;;9.90;99.90;;;;;;5019549;28;20449;-89
2022/10/26 00:04:42;;;;;;;6.82;1.55;;;9.90;99.90;;;;;;5023296;28;20088;-91
2022/10/26 00:07:07;;;;;;;7.85;2.10;;;9.90;99.90;;;;;;5019535;28;20025;-90
2022/10/26 00:09:33;;;;;;;11.35;2.28;;;9.90;99.90;;;;;;5021166;28;20112;-89
2022/10/26 00:11:59;;;;;;;5.63;1.70;;;9.90;99.90;;;;;;5018467;28;20046;-90
2022/10/26 00:14:25;;;;;;;6.85;1.70;;;9.90;99.90;;;;;;5027488;28;20104;-90
2022/10/26 00:16:51;;;;;;;5.40;1.58;;;9.80;99.90;;;;;;5021326;28;20501;-90
2022/10/26 00:19:17;;;;;;;5.70;2.20;;;9.80;99.90;;;;;;5027169;28;20021;-89
2022/10/26 00:21:43;;;;;;;4.78;1.70;;;9.80;99.90;;;;;;5019706;28;20453;-90
2022/10/26 00:24:11;;;;;;;2.30;1.50;;;9.80;99.90;;;;;;5022397;28;20038;-91
2022/10/26 00:26:37;;;;;;;7.88;1.60;;;9.80;99.90;;;;;;5025750;28;20041;-89
2022/10/26 00:29:03;;;;;;;9.48;1.35;;;9.80;99.90;;;;;;5020410;28;20040;-90
2022/10/26 00:31:28;;;;;;;14.13;3.10;;;9.70;99.90;;;;;;5022046;28;20022;-90
2022/10/26 00:33:55;;;;;;;25.00;3.10;;;9.70;99.90;;;;;;5023616;28;20103;-92
2022/10/26 00:36:22;;;;;;;16.27;3.90;;;10.00;99.90;;;;;;5026148;28;20026;-91
2022/10/26 00:38:53;;;;;;;8.98;3.85;;;10.20;99.90;;;;;;5032749;28;20309;-91
2022/10/26 00:41:22;;;;;;;15.32;3.97;;;10.50;99.90;;;;;;5024298;28;20578;-92
2022/10/26 00:43:48;;;;;;;11.18;3.25;;;10.80;99.90;;;;;;5026352;28;20130;-91
2022/10/26 00:46:31;;;;;;;11.85;3.63;;;11.00;99.90;;;;;;5027503;28;20116;-92
2022/10/26 00:49:01;;;;;;;16.40;3.83;;;11.20;99.90;;;;;;5024342;28;20029;-91
2022/10/26 00:51:38;;;;;;;11.65;3.03;;;11.30;99.90;;;;;;5024537;28;20021;-92
2022/10/26 00:54:10;;;;;;;13.57;3.13;;;11.50;99.90;;;;;;5024209;28;20394;-92
2022/10/26 00:56:36;;;;;;;5.15;2.70;;;11.60;99.90;;;;;;5029841;28;20036;-93
2022/10/26 00:59:09;;;;;;;8.18;2.90;;;11.70;99.90;;;;;;5019291;28;20161;-90
2022/10/26 01:01:37;;;;;;;16.08;3.10;;;11.70;99.90;;;;;;5027988;28;20152;-92
2022/10/26 01:04:03;;;;;;;10.63;2.97;;;11.80;99.90;;;;;;5023605;28;20042;-91
2022/10/26 01:06:31;;;;;;;16.27;3.45;;;11.80;99.90;;;;;;5024167;28;20025;-91
2022/10/26 01:08:57;;;;;;;9.02;3.30;;;11.90;99.90;;;;;;5032431;28;20036;-92
2022/10/26 01:11:23;;;;;;;7.63;3.03;;;11.90;99.90;;;;;;5025143;28;20053;-91
2022/10/26 01:13:51;;;;;;;7.60;3.05;;;11.90;99.90;;;;;;5019155;28;20502;-93
2022/10/26 01:16:48;;;;;;;16.20;3.95;;;11.90;99.90;;;;;;5023931;28;20060;-92
2022/10/26 01:19:22;;;;;;;;;;;11.90;99.90;;;;;;5026101;28;20029;-92
2022/10/26 01:22:07;;;;;;;8.98;2.92;;;11.90;99.90;;;;;;5020286;28;20441;-93
2022/10/26 01:25:02;;;;;;;14.38;3.20;;;11.90;99.90;;;;;;5026141;28;20079;-93
2022/10/26 01:27:50;;;;;;;14.82;4.45;;;11.80;99.90;;;;;;5030017;28;20026;-92
2022/10/26 01:30:26;;;;;;;15.38;4.05;;;11.90;99.90;;;;;;5028225;28;20029;-92
2022/10/26 01:33:16;;;;;;;12.20;3.03;;;11.90;99.90;;;;;;5022395;28;20030;-95
2022/10/26 01:35:52;;;;;;;7.43;2.78;;;11.80;99.90;;;;;;5026128;28;20113;-92
2022/10/26 01:38:50;;;;;;;17.38;3.78;;;11.90;99.90;;;;;;5015192;28;20431;-91
2022/10/26 01:41:34;;;;;;;13.43;3.65;;;11.80;99.90;;;;;;4989755;28;20041;-92
2022/10/26 01:44:14;;;;;;;8.13;3.30;;;11.90;99.90;;;;;;5018512;28;20065;-90
2022/10/26 01:46:42;;;;;;;9.80;3.53;;;11.90;99.90;;;;;;5024934;28;20464;-92
2022/10/26 01:49:11;;;;;;;8.10;3.22;;;11.90;99.90;;;;;;5018631;28;20030;-92
2022/10/26 01:51:42;;;;;;;15.85;3.63;;;11.90;99.90;;;;;;5025089;28;20037;-93
2022/10/26 01:54:08;;;;;;;7.22;2.60;;;11.90;99.90;;;;;;5025081;28;20052;-93
2022/10/26 01:56:37;;;;;;;10.07;3.17;;;11.90;99.90;;;;;;5030359;28;20112;-93
2022/10/26 01:59:18;;;;;;;8.68;3.58;;;11.90;99.90;;;;;;5024826;28;20124;-91
2022/10/26 02:02:21;;;;;;;15.18;3.30;;;11.90;99.90;;;;;;5026754;28;20041;-91
2022/10/26 02:05:23;;;;;;;16.00;2.97;;;11.80;99.90;;;;;;5030321;28;20167;-93
2022/10/26 02:08:04;;;;;;;10.93;3.05;;;11.80;99.90;;;;;;5018766;28;20091;-91
2022/10/26 02:10:50;;;;;;;18.30;2.92;;;11.90;99.90;;;;;;5019551;28;20478;-92
2022/10/26 02:13:32;;;;;;;8.30;2.50;;;11.80;99.90;;;;;;5025051;28;20098;-91
2022/10/26 02:16:17;;;;;;;10.15;3.15;;;11.80;99.90;;;;;;5033523;28;20114;-94
2022/10/26 02:18:59;;;;;;;22.73;3.08;;;11.80;99.90;;;;;;5025856;28;20037;-93
2022/10/26 02:21:34;;;;;;;18.88;3.45;;;11.80;99.90;;;;;;5022892;28;20026;-94
2022/10/26 02:24:00;;;;;;;12.85;3.45;;;11.90;99.90;;;;;;5023127;28;20033;-85
2022/10/26 02:26:29;;;;;;;9.27;2.88;;;11.90;99.90;;;;;;5024630;28;20472;-91
2022/10/26 02:29:06;;;;;;;8.35;3.28;;;11.90;99.90;;;;;;5017129;28;20498;-92
2022/10/26 02:31:35;;;;;;;8.80;3.55;;;11.90;99.90;;;;;;5023117;28;20129;-92
2022/10/26 02:34:04;;;;;;;12.32;3.08;;;11.90;99.90;;;;;;5016609;28;20120;-93
2022/10/26 02:36:33;;;;;;;12.43;3.35;;;11.90;99.90;;;;;;5023505;28;20026;-91
2022/10/26 02:39:02;;;;;;;8.70;3.42;;;12.00;99.90;;;;;;5030042;28;20454;-93
2022/10/26 02:41:29;;;;;;;7.63;2.85;;;11.90;99.90;;;;;;5020715;28;20438;-89
2022/10/26 02:44:10;;;;;;;7.00;2.45;;;12.00;99.90;;;;;;5021768;28;20117;-92
2022/10/26 02:46:36;;;;;;;13.55;4.13;;;11.90;99.90;;;;;;5023196;28;20055;-94
2022/10/26 02:49:02;;;;;;;14.20;2.80;;;12.00;99.90;;;;;;5024530;28;20030;-91
2022/10/26 02:51:38;;;;;;;5.97;2.03;;;11.90;99.90;;;;;;5006007;28;20064;-89
2022/10/26 02:54:14;;;;;;;;;;;12.00;99.90;;;;;;5022650;28;20038;-91
2022/10/26 02:56:50;;;;;;;5.85;2.42;;;11.90;99.90;;;;;;5007427;28;19914;-92
2022/10/26 02:59:21;;;;;;;15.73;2.72;;;11.90;99.90;;;;;;5019052;28;20067;-87
2022/10/26 03:01:47;;;;;;;13.10;2.72;;;12.00;99.90;;;;;;5026710;28;20045;-89
2022/10/26 03:04:13;;;;;;;20.00;2.58;;;12.00;99.90;;;;;;5025392;28;20037;-92
2022/10/26 03:06:38;;;;;;;10.05;2.53;;;12.00;99.90;;;;;;5027624;28;20025;-92
2022/10/26 03:09:04;;;;;;;10.88;2.05;;;12.10;99.90;;;;;;5013429;28;20055;-89
2022/10/26 03:11:29;;;;;;;7.38;2.47;;;12.00;99.90;;;;;;5022641;28;20052;-92
2022/10/26 03:13:55;;;;;;;10.57;2.40;;;12.10;99.90;;;;;;5018099;28;20033;-91
2022/10/26 03:16:21;;;;;;;13.70;2.80;;;12.10;99.90;;;;;;5024357;28;20044;-92
2022/10/26 03:18:46;;;;;;;8.82;2.13;;;12.20;99.90;;;;;;5021041;28;20052;-92
2022/10/26 03:21:12;;;;;;;6.65;2.33;;;12.10;99.90;;;;;;5022642;28;20029;-93
2022/10/26 03:23:37;;;;;;;10.25;2.50;;;12.10;99.90;;;;;;5014888;28;20034;-92
2022/10/26 03:26:03;;;;;;;9.93;2.80;;;12.10;99.90;;;;;;5017757;28;20098;-94
2022/10/26 03:28:29;;;;;;;7.63;2.10;;;12.10;99.90;;;;;;5023567;28;20030;-94
2022/10/26 03:30:54;;;;;;;7.38;2.70;;;12.00;99.90;;;;;;5016041;28;20018;-92
2022/10/26 03:33:20;;;;;;;6.90;2.50;;;12.10;99.90;;;;;;5017602;28;20052;-92
2022/10/26 03:35:45;;;;;;;6.22;2.42;;;12.10;99.90;;;;;;5020022;28;20096;-89
2022/10/26 03:38:11;;;;;;;11.65;2.38;;;12.10;99.90;;;;;;5022693;28;20018;-94
2022/10/26 03:40:37;;;;;;;11.15;2.53;;;12.10;99.90;;;;;;5026941;28;20025;-94
2022/10/26 03:43:03;;;;;;;13.07;2.90;;;12.10;99.90;;;;;;5022569;28;20026;-91
2022/10/26 03:45:28;;;;;;;19.25;2.50;;;12.10;99.90;;;;;;5023253;28;20026;-89
2022/10/26 03:47:54;;;;;;;6.88;2.15;;;12.10;99.90;;;;;;5020504;28;20034;-85
2022/10/26 03:50:21;;;;;;;10.10;2.45;;;12.10;99.90;;;;;;5023949;28;20063;-91
2022/10/26 03:52:47;;;;;;;9.43;2.25;;;12.10;99.90;;;;;;5024598;28;20116;-91
2022/10/26 03:55:14;;;;;;;15.07;2.45;;;12.10;99.90;;;;;;5024475;28;20106;-96
2022/10/26 03:57:44;;;;;;;11.80;2.75;;;12.00;99.90;;;;;;5023856;28;20037;-96
2022/10/26 04:00:14;;;;;;;5.75;2.05;;;12.00;99.90;;;;;;5007203;28;20029;-92
2022/10/26 04:02:39;;;;;;;8.57;2.38;;;12.00;99.90;;;;;;5029373;28;20029;-93
2022/10/26 04:05:06;;;;;;;10.48;2.55;;;12.00;99.90;;;;;;5031831;28;20018;-93
2022/10/26 04:07:31;;;;;;;10.70;2.25;;;12.00;99.90;;;;;;5024547;28;20089;-92
2022/10/26 04:09:57;;;;;;;4.82;1.70;;;12.10;99.90;;;;;;5027019;28;20117;-89
2022/10/26 04:12:22;;;;;;;7.22;1.67;;;12.00;99.90;;;;;;5031325;28;20049;-90
2022/10/26 04:14:48;;;;;;;7.32;2.63;;;11.90;99.90;;;;;;5025169;28;20128;-87
2022/10/26 04:17:14;;;;;;;12.80;3.33;;;11.90;99.90;;;;;;5029452;28;20467;-92
2022/10/26 04:19:39;;;;;;;3.72;1.98;;;12.00;99.90;;;;;;5024802;28;20026;-92
2022/10/26 04:22:05;;;;;;;6.20;2.08;;;12.00;99.90;;;;;;5023087;28;21208;-91
2022/10/26 04:24:30;;;;;;;5.30;2.47;;;11.90;99.90;;;;;;5029599;28;20075;-90
2022/10/26 04:26:58;;;;;;;9.35;1.77;;;11.90;99.90;;;;;;5029019;28;20493;-91
2022/10/26 04:29:24;;;;;;;7.45;2.20;;;11.90;99.90;;;;;;5025404;28;20056;-92
2022/10/26 04:31:50;;;;;;;5.43;2.25;;;12.00;99.90;;;;;;5011354;28;20026;-94
2022/10/26 04:34:15;;;;;;;9.00;2.15;;;11.90;99.90;;;;;;5029107;28;20372;-92
2022/10/26 04:36:41;;;;;;;9.07;1.83;;;11.90;99.90;;;;;;5026506;28;20037;-94
2022/10/26 04:39:07;;;;;;;8.35;1.73;;;11.80;99.90;;;;;;5026783;28;20033;-93
2022/10/26 04:41:32;;;;;;;6.60;2.00;;;11.80;99.90;;;;;;5025833;28;20060;-93
2022/10/26 04:43:58;;;;;;;5.68;2.00;;;11.90;99.90;;;;;;5022829;28;20030;-92
2022/10/26 04:46:23;;;;;;;5.07;2.58;;;11.90;99.90;;;;;;5026225;28;20074;-93
2022/10/26 04:48:49;;;;;;;4.97;2.05;;;11.80;99.90;;;;;;5020456;28;20167;-92
2022/10/26 04:51:15;;;;;;;7.32;2.78;;;11.80;99.90;;;;;;5025477;28;20029;-92
2022/10/26 04:53:40;;;;;;;7.13;1.92;;;11.80;99.90;;;;;;5006078;28;20052;-92
2022/10/26 04:56:06;;;;;;;4.57;1.60;;;11.80;99.90;;;;;;5029450;28;20058;-92
2022/10/26 04:58:32;;;;;;;7.80;1.85;;;11.80;99.90;;;;;;5021342;28;20026;-92
2022/10/26 05:00:57;;;;;;;6.45;1.85;;;11.90;99.90;;;;;;5025243;28;20075;-89
2022/10/26 05:03:23;;;;;;;6.47;1.80;;;11.90;99.90;;;;;;5013768;28;20033;-90
2022/10/26 05:05:48;;;;;;;7.35;1.88;;;11.80;99.90;;;;;;5032092;28;20033;-92
2022/10/26 05:08:15;;;;;;;7.78;1.80;;;11.80;99.90;;;;;;5028327;28;20500;-92
2022/10/26 05:10:41;;;;;;;8.00;1.98;;;11.90;99.90;;;;;;5025484;28;20075;-92
2022/10/26 05:13:08;;;;;;;13.98;2.00;;;11.80;99.90;;;;;;5032351;28;20694;-91
2022/10/26 05:15:33;;;;;;;4.38;1.65;;;11.80;99.90;;;;;;5023093;28;20541;-93
2022/10/26 05:18:02;;;;;;;8.15;1.92;;;11.80;99.90;;;;;;5028529;28;20025;-91
2022/10/26 05:20:30;;;;;;;12.80;2.05;;;11.80;99.90;;;;;;5017527;28;20173;-92
2022/10/26 05:23:00;;;;;;;9.20;1.90;;;11.80;99.90;;;;;;5025319;28;20025;-94
2022/10/26 05:25:28;;;;;;;7.60;2.33;;;11.90;99.90;;;;;;5023234;28;20476;-94
2022/10/26 05:28:00;;;;;;;6.22;2.10;;;11.90;99.90;;;;;;5024461;28;20029;-91
2022/10/26 05:30:27;;;;;;;9.95;2.88;;;11.90;99.90;;;;;;5022641;28;20040;-92
2022/10/26 05:32:54;;;;;;;2.15;1.50;;;11.90;99.90;;;;;;5020728;28;20032;-95
2022/10/26 05:35:19;;;;;;;5.88;2.30;;;11.90;99.90;;;;;;5019871;28;20064;-91
2022/10/26 05:37:45;;;;;;;9.80;2.60;;;11.90;99.90;;;;;;5012744;28;20021;-90
2022/10/26 05:40:11;;;;;;;7.70;1.95;;;11.90;99.90;;;;;;5024296;28;20475;-90
2022/10/26 05:42:36;;;;;;;8.63;2.60;;;11.90;99.90;;;;;;5027933;28;20109;-92
2022/10/26 05:45:02;;;;;;;5.93;2.60;;;11.90;99.90;;;;;;5016049;28;20137;-92
2022/10/26 05:47:28;;;;;;;7.53;2.38;;;11.90;99.90;;;;;;5021779;28;20041;-91
2022/10/26 05:49:53;;;;;;;11.15;2.50;;;11.90;99.90;;;;;;5021546;28;20026;-91
2022/10/26 05:52:19;;;;;;;10.75;1.98;;;11.90;99.90;;;;;;5023945;28;20161;-90
2022/10/26 05:54:44;;;;;;;8.50;2.75;;;11.90;99.90;;;;;;5006971;28;20064;-89
2022/10/26 05:57:12;;;;;;;10.73;2.10;;;11.90;99.90;;;;;;5015469;28;20034;-92
2022/10/26 05:59:37;;;;;;;7.88;2.35;;;11.90;99.90;;;;;;5013691;28;20096;-90
2022/10/26 06:02:25;;;;;;;5.10;1.73;;;11.90;99.90;;;;;;5022589;28;20479;-91
2022/10/26 06:04:52;;;;;;;7.80;1.92;;;11.90;99.90;;;;;;5029258;28;20022;-91
2022/10/26 06:07:19;;;;;;;10.38;2.15;;;11.90;99.90;;;;;;5021876;28;20133;-92
2022/10/26 06:09:46;;;;;;;3.85;1.67;;;11.90;99.90;;;;;;4996114;28;20026;-90
2022/10/26 06:12:12;;;;;;;8.38;2.22;;;11.90;99.90;;;;;;5020841;28;20558;-91
2022/10/26 06:14:39;;;;;;;8.70;1.70;;;11.90;99.90;;;;;;5025794;28;20042;-90
2022/10/26 06:17:42;;;;;;;5.93;1.70;;;11.90;99.90;;;;;;5021431;28;20018;-90
2022/10/26 06:20:40;;;;;;;4.68;1.60;;;11.90;99.90;;;;;;5018501;28;20371;-91
2022/10/26 06:23:06;;;;;;;9.15;1.90;;;11.90;99.90;;;;;;5023661;28;20068;-91
2022/10/26 06:25:53;;;;;;;4.70;2.03;;;11.90;99.90;;;;;;5018480;28;20061;-93
2022/10/26 06:28:51;;;;;;;5.38;1.67;;;11.90;99.90;;;;;;5021174;28;20036;-91
2022/10/26 06:31:17;;;;;;;11.55;3.33;;;11.90;99.90;;;;;;5011115;28;20038;-89
2022/10/26 06:33:42;;;;;;;9.48;2.65;;;11.90;99.90;;;;;;5021897;28;20117;-91
2022/10/26 06:36:14;;;;;;;10.60;2.28;;;11.90;99.90;;;;;;5020013;28;20117;-93
2022/10/26 06:38:43;;;;;;;6.55;1.63;;;11.90;99.90;;;;;;5024210;28;20041;-90
2022/10/26 06:41:14;;;;;;;6.43;1.75;;;12.00;99.90;;;;;;5024330;28;20076;-90
2022/10/26 06:43:40;;;;;;;5.38;1.73;;;12.00;99.90;;;;;;5023550;28;20029;-91
2022/10/26 06:46:28;;;;;;;11.70;3.00;;;12.00;99.90;;;;;;5024453;28;20049;-89
2022/10/26 06:49:13;;;;;;;5.93;1.73;;;12.10;99.90;;;;;;5025948;28;20037;-90
2022/10/26 06:52:15;;;;;;;11.02;2.40;;;12.20;99.90;;;;;;5023281;28;20068;-91
2022/10/26 06:54:50;;;;;;;6.20;1.75;;;12.20;99.90;;;;;;5023079;28;20045;-91
2022/10/26 06:57:25;;;;;;;8.82;1.80;;;12.30;99.90;;;;;;5022215;28;20530;-90
2022/10/26 06:59:59;;;;;;;12.55;2.00;;;12.30;99.90;;;;;;5029109;28;20072;-92
2022/10/26 07:02:25;;;;;;;6.43;1.73;;;12.40;99.90;;;;;;5024828;28;20030;-92
2022/10/26 07:04:51;;;;;;;6.90;1.80;;;12.40;99.90;;;;;;5028841;28;20533;-93
2022/10/26 07:07:21;;;;;;;8.80;1.88;;;12.40;99.90;;;;;;5018449;28;20029;-93
2022/10/26 07:09:47;;;;;;;14.38;2.13;;;12.40;99.90;;;;;;5013038;28;20034;-88
2022/10/26 07:12:13;;;;;;;9.10;1.58;;;12.40;99.90;;;;;;5024505;28;20144;-93
2022/10/26 07:14:39;;;;;;;8.32;1.70;;;12.40;99.90;;;;;;5011841;28;20145;-91
2022/10/26 07:17:04;;;;;;;9.60;2.05;;;12.50;99.90;;;;;;5031391;28;20072;-92
2022/10/26 07:19:30;;;;;;;10.20;2.63;;;12.50;99.90;;;;;;5026242;28;20112;-92
2022/10/26 07:22:00;;;;;;;9.30;1.95;;;12.60;99.90;;;;;;5019134;28;20030;-93
2022/10/26 07:24:29;;;;;;;6.28;1.40;;;12.60;99.90;;;;;;5027506;28;20025;-96
2022/10/26 07:26:56;;;;;;;10.27;2.22;;;12.70;99.90;;;;;;5023355;28;20026;-91
2022/10/26 07:29:23;;;;;;;14.35;1.75;;;12.80;99.90;;;;;;5029610;28;20022;-95
2022/10/26 07:31:49;;;;;;;9.45;1.67;;;12.90;99.90;;;;;;5022722;28;20029;-92
2022/10/26 07:34:15;;;;;;;20.27;1.75;;;13.00;99.90;;;;;;5022106;28;20045;-91
2022/10/26 07:36:41;;;;;;;7.68;1.58;;;13.00;99.90;;;;;;5015815;28;20030;-93
2022/10/26 07:39:06;;;;;;;8.77;1.65;;;13.10;99.90;;;;;;5014271;28;20033;-90
2022/10/26 07:41:32;;;;;;;7.93;1.80;;;13.20;99.90;;;;;;5023538;28;20036;-92
2022/10/26 07:43:58;;;;;;;6.00;1.40;;;13.30;99.90;;;;;;5024165;28;20482;-93
2022/10/26 07:46:25;;;;;;;14.73;2.35;;;13.50;99.90;;;;;;5006759;28;20060;-92
2022/10/26 07:48:50;;;;;;;8.75;1.83;;;13.60;99.90;;;;;;5014034;28;20053;-91
2022/10/26 07:51:16;;;;;;;16.52;1.85;;;13.70;99.90;;;;;;5026548;28;20030;-92
2022/10/26 07:53:42;;;;;;;11.30;2.03;;;13.80;99.90;;;;;;5027780;28;20483;-94
2022/10/26 07:56:09;;;;;;;7.45;1.92;;;13.90;99.90;;;;;;5025167;28;20083;-91
2022/10/26 07:58:35;;;;;;;5.72;1.38;;;14.10;99.90;;;;;;5024389;28;20278;-90
2022/10/26 08:01:08;;;;;;;6.45;1.90;;;14.10;99.90;;;;;;5020744;28;20057;-92
2022/10/26 08:03:41;;;;;;;10.88;2.38;;;14.10;99.90;;;;;;5020620;28;20057;-92
2022/10/26 08:06:10;;;;;;;14.07;1.75;;;14.20;99.90;;;;;;5024924;28;20022;-91
2022/10/26 08:08:36;;;;;;;9.25;1.95;;;14.20;99.90;;;;;;5018001;28;20026;-92
2022/10/26 08:11:02;;;;;;;6.15;2.15;;;14.30;99.90;;;;;;5018919;28;20050;-93
2022/10/26 08:13:28;;;;;;;4.13;1.80;;;14.40;99.90;;;;;;5015486;28;20022;-91
2022/10/26 08:15:58;;;;;;;3.65;1.50;;;14.40;99.90;;;;;;5025685;28;20302;-91
2022/10/26 08:18:24;;;;;;;4.72;1.48;;;14.40;99.90;;;;;;5025435;28;20036;-89
2022/10/26 08:20:49;;;;;;;5.03;1.45;;;14.30;99.90;;;;;;5022874;28;20463;-90
2022/10/26 08:23:15;;;;;;;5.63;1.85;;;14.30;99.90;;;;;;5014011;28;20037;-89
2022/10/26 08:25:41;;;;;;;10.02;1.75;;;14.20;99.90;;;;;;5014483;28;20034;-90
2022/10/26 08:28:06;;;;;;;5.15;1.48;;;14.10;99.90;;;;;;5018687;28;20037;-91
2022/10/26 08:30:33;;;;;;;14.50;2.58;;;14.00;99.90;;;;;;5019067;28;20034;-90
2022/10/26 08:33:04;;;;;;;3.80;1.73;;;13.90;99.90;;;;;;5016540;28;20044;-90
2022/10/26 08:35:30;;;;;;;5.15;1.50;;;13.90;99.90;;;;;;5021827;28;20095;-90
2022/10/26 08:37:55;;;;;;;6.05;1.88;;;13.80;99.90;;;;;;5016749;28;20112;-91
2022/10/26 08:40:27;;;;;;;5.55;1.95;;;13.80;99.90;;;;;;5019441;28;20030;-91
2022/10/26 08:43:02;;;;;;;4.75;1.67;;;13.80;99.90;;;;;;5022449;28;20516;-90
2022/10/26 08:45:34;;;;;;;3.70;1.65;;;13.70;99.90;;;;;;5023825;28;20041;-90
2022/10/26 08:48:06;;;;;;;4.05;1.90;;;13.70;99.90;;;;;;5023113;28;20059;-90
2022/10/26 08:50:39;;;;;;;7.05;2.33;;;13.60;99.90;;;;;;5029369;28;20029;-90
2022/10/26 08:53:37;;;;;;;4.72;2.00;;;13.60;99.90;;;;;;5022674;28;20026;-91
2022/10/26 08:56:10;;;;;;;3.42;2.17;;;13.60;99.90;;;;;;5027761;28;20102;-89
2022/10/26 08:59:00;;;;;;;3.28;1.77;;;13.60;99.90;;;;;;5026312;28;20459;-91
2022/10/26 09:01:29;;;;;;;4.75;2.35;;;13.60;99.90;;;;;;5026939;28;20103;-91
2022/10/26 09:03:56;;;;;;;13.43;2.90;;;13.60;99.90;;;;;;5025924;28;20033;-93
2022/10/26 09:06:38;;;;;;;7.70;2.95;;;13.60;99.90;;;;;;5029786;28;20030;-91
2022/10/26 09:09:22;;;;;;;8.02;3.00;;;13.60;99.90;;;;;;5028268;28;20605;-92
2022/10/26 09:12:15;;;;;;;16.63;3.78;;;13.60;99.90;;;;;;5027399;28;20047;-93
2022/10/26 09:14:55;;;;;;;5.35;2.90;;;13.60;99.90;;;;;;5028560;28;20530;-92
2022/10/26 09:17:51;;;;;;;6.07;2.45;;;13.60;99.90;;;;;;5019352;28;20490;-89
2022/10/26 09:20:43;;;;;;;5.80;2.55;;;13.70;99.90;;;;;;5026577;28;20037;-90
2022/10/26 09:23:17;;;;;;;9.02;2.83;;;13.60;99.90;;;;;;5031666;28;20450;-91
2022/10/26 09:25:52;;;;;;;8.27;2.30;;;13.70;99.90;;;;;;5022650;28;20551;-92
2022/10/26 09:28:18;;;;;;;17.47;2.87;;;13.70;99.90;;;;;;5022585;28;20319;-91
2022/10/26 09:30:45;;;;;;;6.82;2.90;;;13.80;99.90;;;;;;5024694;28;20430;-92
2022/10/26 09:33:16;;;;;;;7.65;2.20;;;13.70;99.90;;;;;;5022769;28;20034;-92
2022/10/26 09:35:48;;;;;;;7.07;2.38;;;13.80;99.90;;;;;;5022416;28;20045;-90
2022/10/26 09:38:31;;;;;;;7.82;2.28;;;13.90;99.90;;;;;;5028787;28;20042;-92
2022/10/26 09:40:59;;;;;;;4.35;1.83;;;13.90;99.90;;;;;;5012809;28;20037;-91
2022/10/26 09:43:39;;;;;;;6.15;2.05;;;13.90;99.90;;;;;;5032188;28;20034;-93
2022/10/26 09:46:04;;;;;;;5.28;2.40;;;13.90;99.90;;;;;;5012285;28;20117;-92
2022/10/26 09:48:42;;;;;;;6.63;2.30;;;13.90;99.90;;;;;;5023760;28;20549;-91
2022/10/26 09:51:10;;;;;;;8.40;2.58;;;14.00;99.90;;;;;;5024243;28;20037;-93
2022/10/26 09:53:36;;;;;;;3.67;2.10;;;14.00;99.90;;;;;;5019054;28;20037;-92
2022/10/26 09:56:11;;;;;;;3.72;2.03;;;14.00;99.90;;;;;;5012590;28;20099;-92
2022/10/26 09:59:01;;;;;;;6.22;2.33;;;14.00;99.90;;;;;;5027695;28;20121;-92
2022/10/26 10:01:28;;;;;;;3.35;1.80;;;14.00;99.90;;;;;;5020106;28;20033;-93
2022/10/26 10:04:12;;;;;;;10.90;2.72;;;14.10;99.90;;;;;;5027847;28;20113;-92
2022/10/26 10:06:43;;;;;;;3.45;1.90;;;14.10;99.90;;;;;;5021582;28;20025;-92
2022/10/26 10:09:13;;;;;;;4.80;2.25;;;14.10;99.90;;;;;;5029139;28;20025;-92
2022/10/26 10:11:57;;;;;;;7.40;2.50;;;14.10;99.90;;;;;;5016246;28;20473;-91
2022/10/26 10:14:38;;;;;;;8.27;2.70;;;14.20;99.90;;;;;;5025597;28;20041;-92
2022/10/26 10:17:10;;;;;;;4.68;2.10;;;14.20;99.90;;;;;;5022820;28;20470;-91
2022/10/26 10:19:37;;;;;;;5.18;2.03;;;14.20;99.90;;;;;;5024317;28;20029;-92
2022/10/26 10:22:21;;;;;;;7.35;1.98;;;14.30;99.90;;;;;;5022152;28;20053;-92
2022/10/26 10:24:59;;;;;;;6.75;1.95;;;14.30;99.90;;;;;;5021197;28;20030;-91
2022/10/26 10:27:25;;;;;;;3.75;1.70;;;14.30;99.90;;;;;;5018077;28;20482;-93
2022/10/26 10:30:18;;;;;;;6.03;2.20;;;14.30;99.90;;;;;;5022471;28;20053;-92
2022/10/26 10:32:44;;;;;;;3.10;1.50;;;14.40;99.90;;;;;;5024550;28;20029;-92
2022/10/26 10:35:23;;;;;;;4.85;1.80;;;14.40;99.90;;;;;;5024076;28;20037;-93
2022/10/26 10:37:50;;;;;;;5.60;1.92;;;14.50;99.90;;;;;;5008971;28;20067;-93
2022/10/26 10:40:21;;;;;;;5.43;2.00;;;14.50;99.90;;;;;;5026778;28;20045;-91
2022/10/26 10:42:49;;;;;;;7.63;2.45;;;14.50;99.90;;;;;;5029177;28;20486;-91
2022/10/26 10:45:23;;;;;;;4.18;1.95;;;14.50;99.90;;;;;;5022243;28;20022;-92
2022/10/26 10:48:11;;;;;;;5.20;2.40;;;14.50;99.90;;;;;;5015309;28;20037;-93
2022/10/26 10:51:11;;;;;;;6.72;2.22;;;14.60;99.90;;;;;;5013805;28;20034;-93
2022/10/26 10:53:58;;;;;;;8.82;2.70;;;14.60;99.90;;;;;;5017204;28;20142;-93
2022/10/26 10:56:50;;;;;;;6.60;2.38;;;14.60;99.90;;;;;;5022018;28;20030;-93
2022/10/26 10:59:19;;;;;;;8.05;2.28;;;14.70;99.90;;;;;;5021508;28;20038;-92
2022/10/26 11:01:58;;;;;;;9.15;2.83;;;14.70;99.90;;;;;;5026702;28;20025;-91
2022/10/26 11:04:33;;;;;;;6.28;2.08;;;14.70;99.90;;;;;;5025397;28;20395;-94
2022/10/26 11:07:01;;;;;;;9.40;2.13;;;14.80;99.90;;;;;;5024014;28;20104;-92
2022/10/26 11:09:29;;;;;;;6.10;1.27;;;14.90;99.90;;;;;;5022994;28;20033;-93
2022/10/26 11:12:22;;;;;;;35.42;3.42;;;15.00;99.90;;;;;;5026231;28;20487;-94
2022/10/26 11:15:05;;;;;;;4.88;1.17;;;15.10;99.90;;;;;;5013551;28;20128;-91
2022/10/26 11:17:39;;;;;;;1.67;1.10;;;15.30;99.90;;;;;;5020179;28;20037;-91
2022/10/26 11:20:13;;;;;;;4.90;1.42;;;15.60;99.90;;;;;;5000010;28;20570;-92
2022/10/26 11:23:04;;;;;;;11.00;1.65;;;15.80;99.90;;;;;;5005126;28;20034;-94
2022/10/26 11:25:41;;;;;;;7.95;1.55;;;16.00;99.90;;;;;;5008042;28;20100;-90
2022/10/26 11:28:39;;;;;;;5.57;1.23;;;16.10;99.90;;;;;;5029102;28;20057;-93
2022/10/26 11:31:12;;;;;;;5.65;1.10;;;16.20;99.90;;;;;;4988647;28;20034;-92
2022/10/26 11:33:46;;;;;;;7.95;1.58;;;16.30;99.90;;;;;;5022870;28;20065;-92
2022/10/26 11:36:19;;;;;;;6.70;1.30;;;16.40;99.90;;;;;;5022583;28;20030;-92
2022/10/26 11:39:02;;;;;;;5.18;1.33;;;16.40;99.90;;;;;;5029743;28;20106;-90
2022/10/26 11:41:39;;;;;;;1.27;0.95;;;16.40;99.90;;;;;;5015936;28;20026;-94
2022/10/26 11:44:09;;;;;;;4.05;1.10;;;16.40;99.90;;;;;;5022557;28;20053;-95
2022/10/26 11:46:40;;;;;;;10.98;1.75;;;16.30;99.90;;;;;;5016269;28;20021;-92
2022/10/26 11:49:28;;;;;;;18.67;1.70;;;16.30;99.90;;;;;;5020304;28;20031;-90
2022/10/26 11:51:57;;;;;;;8.68;0.98;;;16.40;99.90;;;;;;5018442;28;20026;-94
2022/10/26 11:54:46;;;;;;;5.80;1.10;;;16.50;99.90;;;;;;5023898;28;20120;-92
2022/10/26 11:57:14;;;;;;;2.40;1.27;;;16.50;99.90;;;;;;5019223;28;20084;-96
2022/10/26 11:59:48;;;;;;;2.55;1.00;;;16.50;99.90;;;;;;5022092;28;20540;-94
2022/10/26 12:02:20;;;;;;;3.63;1.20;;;16.50;99.90;;;;;;5009549;28;20033;-93
2022/10/26 12:05:00;;;;;;;1.35;0.80;;;16.50;99.90;;;;;;5020580;28;20029;-93
2022/10/26 12:07:29;;;;;;;10.75;1.30;;;16.50;99.90;;;;;;5023035;28;20394;-93
2022/10/26 12:09:56;;;;;;;4.93;1.23;;;16.60;99.90;;;;;;5017579;28;20033;-94
2022/10/26 12:12:44;;;;;;;13.23;1.27;;;16.50;99.90;;;;;;5013644;28;20069;-95
2022/10/26 12:15:21;;;;;;;4.55;0.90;;;16.50;99.90;;;;;;5015133;28;20410;-92
2022/10/26 12:17:53;;;;;;;2.72;0.82;;;16.50;99.90;;;;;;5019862;28;20123;-92
2022/10/26 12:20:37;;;;;;;4.75;1.15;;;16.50;99.90;;;;;;5007422;28;20380;-95
2022/10/26 12:23:04;;;;;;;8.20;1.10;;;16.40;99.90;;;;;;5018999;28;20120;-95
2022/10/26 12:25:33;;;;;;;5.57;0.88;;;16.30;99.90;;;;;;5032604;28;20025;-92
2022/10/26 12:27:59;;;;;;;7.10;0.98;;;16.30;99.90;;;;;;5029780;28;20029;-95
2022/10/26 12:30:37;;;;;;;4.07;1.00;;;16.30;99.90;;;;;;5022916;28;20415;-94
2022/10/26 12:33:29;;;;;;;2.65;0.90;;;16.30;99.90;;;;;;5027309;28;20029;-94
2022/10/26 12:35:55;;;;;;;7.78;1.05;;;16.30;99.90;;;;;;5025505;28;20050;-94
2022/10/26 12:38:20;;;;;;;4.43;1.10;;;16.30;99.90;;;;;;5018605;28;20072;-95
2022/10/26 12:40:47;;;;;;;12.07;1.42;;;16.30;99.90;;;;;;5008755;28;20030;-92
2022/10/26 12:43:12;;;;;;;5.68;1.45;;;16.30;99.90;;;;;;5023556;28;20026;-90
2022/10/26 12:45:38;;;;;;;1.80;0.90;;;16.40;99.90;;;;;;5025197;28;20068;-95
2022/10/26 12:48:25;;;;;;;2.97;1.33;;;16.50;99.90;;;;;;5024114;28;20481;-93
2022/10/26 12:50:52;;;;;;;2.13;1.02;;;16.40;99.90;;;;;;5001035;28;20502;-93
2022/10/26 12:53:20;;;;;;;2.10;1.30;;;16.30;99.90;;;;;;5024723;28;20057;-93
2022/10/26 12:55:52;;;;;;;4.43;1.13;;;16.40;99.90;;;;;;5026014;28;20478;-91
2022/10/26 12:58:17;;;;;;;6.25;1.45;;;16.40;99.90;;;;;;5030507;28;20018;-90
2022/10/26 13:00:59;;;;;;;5.95;1.63;;;16.50;99.90;;;;;;5027063;28;20025;-94
2022/10/26 13:03:38;;;;;;;5.13;0.80;;;16.50;99.90;;;;;;5029383;28;20534;-93
2022/10/26 13:06:25;;;;;;;3.97;1.05;;;16.50;99.90;;;;;;5015125;28;20384;-93
2022/10/26 13:08:54;;;;;;;6.43;1.45;;;16.50;99.90;;;;;;5017613;28;20255;-93
2022/10/26 13:11:30;;;;;;;7.40;1.17;;;16.50;99.90;;;;;;5019722;28;20503;-92